sensor_id;sensor_type;location;lat;lon;timestamp;P1;durP1;ratioP1;P2;durP2;ratioP2
82248;SDS011;71851;49.092;18.918;2023-07-29T00:01:48;2.40;;;1.95;;
82248;SDS011;71851;49.092;18.918;2023-07-29T00:04:49;2.95;;;2.03;;
82248;SDS011;71851;49.092;18.918;2023-07-29T00:07:50;2.80;;;2.10;;
82248;SDS011;71851;49.092;18.918;2023-07-29T00:10:50;2.75;;;2.13;;
82248;SDS011;71851;49.092;18.918;2023-07-29T00:13:51;4.32;;;2.00;;
82248;SDS011;71851;49.092;18.918;2023-07-29T00:16:52;3.40;;;2.38;;
82248;SDS011;71851;49.092;18.918;2023-07-29T00:19:53;3.58;;;1.90;;
82248;SDS011;71851;49.092;18.918;2023-07-29T00:22:53;4.45;;;2.20;;
82248;SDS011;71851;49.092;18.918;2023-07-29T00:25:54;2.03;;;1.83;;
82248;SDS011;71851;49.092;18.918;2023-07-29T00:28:55;2.10;;;1.70;;
82248;SDS011;71851;49.092;18.918;2023-07-29T00:31:56;3.20;;;1.77;;
82248;SDS011;71851;49.092;18.918;2023-07-29T00:34:57;3.25;;;1.90;;
82248;SDS011;71851;49.092;18.918;2023-07-29T00:37:57;4.72;;;2.10;;
82248;SDS011;71851;49.092;18.918;2023-07-29T00:40:58;4.93;;;1.75;;
82248;SDS011;71851;49.092;18.918;2023-07-29T00:43:59;2.40;;;2.00;;
82248;SDS011;71851;49.092;18.918;2023-07-29T00:47:00;3.65;;;1.90;;
82248;SDS011;71851;49.092;18.918;2023-07-29T00:50:03;3.28;;;1.80;;
82248;SDS011;71851;49.092;18.918;2023-07-29T00:53:04;2.28;;;2.00;;
82248;SDS011;71851;49.092;18.918;2023-07-29T00:56:05;2.88;;;2.20;;
82248;SDS011;71851;49.092;18.918;2023-07-29T00:59:05;3.58;;;1.90;;
82248;SDS011;71851;49.092;18.918;2023-07-29T01:02:06;2.92;;;2.42;;
82248;SDS011;71851;49.092;18.918;2023-07-29T01:05:08;3.05;;;1.95;;
82248;SDS011;71851;49.092;18.918;2023-07-29T01:08:14;3.13;;;1.88;;
82248;SDS011;71851;49.092;18.918;2023-07-29T01:17:56;2.13;;;1.55;;
82248;SDS011;71851;49.092;18.918;2023-07-29T01:21:03;4.00;;;1.88;;
82248;SDS011;71851;49.092;18.918;2023-07-29T01:24:07;3.72;;;2.10;;
82248;SDS011;71851;49.092;18.918;2023-07-29T01:27:07;8.95;;;2.10;;
82248;SDS011;71851;49.092;18.918;2023-07-29T01:30:08;3.33;;;1.88;;
82248;SDS011;71851;49.092;18.918;2023-07-29T01:33:10;4.55;;;1.92;;
82248;SDS011;71851;49.092;18.918;2023-07-29T01:36:27;3.30;;;1.92;;
82248;SDS011;71851;49.092;18.918;2023-07-29T01:39:31;3.75;;;2.05;;
82248;SDS011;71851;49.092;18.918;2023-07-29T01:42:35;3.40;;;1.80;;
82248;SDS011;71851;49.092;18.918;2023-07-29T01:45:37;3.67;;;2.10;;
82248;SDS011;71851;49.092;18.918;2023-07-29T01:48:38;2.55;;;2.35;;
82248;SDS011;71851;49.092;18.918;2023-07-29T01:51:39;2.78;;;2.22;;
82248;SDS011;71851;49.092;18.918;2023-07-29T01:54:39;2.35;;;2.15;;
82248;SDS011;71851;49.092;18.918;2023-07-29T01:57:39;5.35;;;1.92;;
82248;SDS011;71851;49.092;18.918;2023-07-29T02:00:40;3.50;;;2.50;;
82248;SDS011;71851;49.092;18.918;2023-07-29T02:03:41;2.25;;;1.88;;
82248;SDS011;71851;49.092;18.918;2023-07-29T02:06:41;2.70;;;2.00;;
82248;SDS011;71851;49.092;18.918;2023-07-29T02:09:42;5.00;;;2.10;;
82248;SDS011;71851;49.092;18.918;2023-07-29T02:12:42;3.40;;;2.42;;
82248;SDS011;71851;49.092;18.918;2023-07-29T02:15:42;2.90;;;1.83;;
82248;SDS011;71851;49.092;18.918;2023-07-29T02:18:43;3.63;;;2.28;;
82248;SDS011;71851;49.092;18.918;2023-07-29T02:21:43;2.67;;;2.30;;
82248;SDS011;71851;49.092;18.918;2023-07-29T02:24:44;4.07;;;2.35;;
82248;SDS011;71851;49.092;18.918;2023-07-29T02:27:45;4.25;;;2.35;;
82248;SDS011;71851;49.092;18.918;2023-07-29T02:30:45;3.00;;;2.15;;
82248;SDS011;71851;49.092;18.918;2023-07-29T02:33:46;2.63;;;1.77;;
82248;SDS011;71851;49.092;18.918;2023-07-29T02:36:48;3.80;;;2.35;;
82248;SDS011;71851;49.092;18.918;2023-07-29T02:39:49;3.40;;;2.42;;
82248;SDS011;71851;49.092;18.918;2023-07-29T02:42:49;2.80;;;2.47;;
82248;SDS011;71851;49.092;18.918;2023-07-29T02:45:50;3.70;;;2.53;;
82248;SDS011;71851;49.092;18.918;2023-07-29T02:48:50;3.42;;;2.30;;
82248;SDS011;71851;49.092;18.918;2023-07-29T02:51:51;3.65;;;2.05;;
82248;SDS011;71851;49.092;18.918;2023-07-29T02:54:51;3.53;;;2.15;;
82248;SDS011;71851;49.092;18.918;2023-07-29T02:57:51;3.47;;;1.95;;
82248;SDS011;71851;49.092;18.918;2023-07-29T03:00:52;3.55;;;2.42;;
82248;SDS011;71851;49.092;18.918;2023-07-29T03:03:53;3.83;;;2.60;;
82248;SDS011;71851;49.092;18.918;2023-07-29T03:06:53;2.90;;;2.28;;
82248;SDS011;71851;49.092;18.918;2023-07-29T03:09:54;2.50;;;2.28;;
82248;SDS011;71851;49.092;18.918;2023-07-29T03:12:54;4.00;;;2.40;;
82248;SDS011;71851;49.092;18.918;2023-07-29T03:16:04;3.40;;;2.38;;
82248;SDS011;71851;49.092;18.918;2023-07-29T03:19:09;3.72;;;2.40;;
82248;SDS011;71851;49.092;18.918;2023-07-29T03:22:09;2.72;;;2.33;;
82248;SDS011;71851;49.092;18.918;2023-07-29T03:25:09;2.88;;;2.10;;
82248;SDS011;71851;49.092;18.918;2023-07-29T03:28:10;3.22;;;2.17;;
82248;SDS011;71851;49.092;18.918;2023-07-29T03:31:10;3.90;;;2.40;;
82248;SDS011;71851;49.092;18.918;2023-07-29T03:34:11;3.65;;;2.22;;
82248;SDS011;71851;49.092;18.918;2023-07-29T03:37:14;2.85;;;2.22;;
82248;SDS011;71851;49.092;18.918;2023-07-29T03:40:15;3.88;;;2.10;;
82248;SDS011;71851;49.092;18.918;2023-07-29T03:43:15;3.78;;;2.83;;
82248;SDS011;71851;49.092;18.918;2023-07-29T03:46:16;3.08;;;2.22;;
82248;SDS011;71851;49.092;18.918;2023-07-29T03:49:20;3.72;;;2.28;;
82248;SDS011;71851;49.092;18.918;2023-07-29T03:52:21;4.00;;;2.75;;
82248;SDS011;71851;49.092;18.918;2023-07-29T03:55:22;2.53;;;2.33;;
82248;SDS011;71851;49.092;18.918;2023-07-29T03:58:22;3.15;;;2.60;;
82248;SDS011;71851;49.092;18.918;2023-07-29T04:01:23;3.38;;;2.40;;
82248;SDS011;71851;49.092;18.918;2023-07-29T04:04:24;3.60;;;2.53;;
82248;SDS011;71851;49.092;18.918;2023-07-29T04:07:25;2.67;;;2.10;;
82248;SDS011;71851;49.092;18.918;2023-07-29T04:10:25;4.72;;;2.38;;
82248;SDS011;71851;49.092;18.918;2023-07-29T04:13:26;10.68;;;2.45;;
82248;SDS011;71851;49.092;18.918;2023-07-29T04:16:26;4.35;;;2.20;;
82248;SDS011;71851;49.092;18.918;2023-07-29T04:19:27;6.20;;;2.20;;
82248;SDS011;71851;49.092;18.918;2023-07-29T04:22:27;4.05;;;2.40;;
82248;SDS011;71851;49.092;18.918;2023-07-29T04:25:28;4.05;;;2.35;;
82248;SDS011;71851;49.092;18.918;2023-07-29T04:28:28;4.55;;;2.60;;
82248;SDS011;71851;49.092;18.918;2023-07-29T04:31:29;3.00;;;2.20;;
82248;SDS011;71851;49.092;18.918;2023-07-29T04:34:30;5.70;;;2.10;;
82248;SDS011;71851;49.092;18.918;2023-07-29T04:37:30;2.30;;;1.92;;
82248;SDS011;71851;49.092;18.918;2023-07-29T04:40:32;4.85;;;2.33;;
82248;SDS011;71851;49.092;18.918;2023-07-29T04:43:33;5.50;;;2.50;;
82248;SDS011;71851;49.092;18.918;2023-07-29T04:46:35;5.22;;;2.60;;
82248;SDS011;71851;49.092;18.918;2023-07-29T04:49:36;3.20;;;2.20;;
82248;SDS011;71851;49.092;18.918;2023-07-29T04:52:36;4.10;;;2.25;;
82248;SDS011;71851;49.092;18.918;2023-07-29T04:55:37;5.13;;;2.38;;
82248;SDS011;71851;49.092;18.918;2023-07-29T04:58:37;3.40;;;2.45;;
82248;SDS011;71851;49.092;18.918;2023-07-29T05:01:38;6.00;;;2.40;;
82248;SDS011;71851;49.092;18.918;2023-07-29T05:04:38;5.65;;;2.13;;
82248;SDS011;71851;49.092;18.918;2023-07-29T05:07:39;6.50;;;2.53;;
82248;SDS011;71851;49.092;18.918;2023-07-29T05:10:39;5.60;;;2.70;;
82248;SDS011;71851;49.092;18.918;2023-07-29T05:13:40;4.32;;;2.80;;
82248;SDS011;71851;49.092;18.918;2023-07-29T05:16:41;4.97;;;2.88;;
82248;SDS011;71851;49.092;18.918;2023-07-29T05:19:42;6.10;;;3.08;;
82248;SDS011;71851;49.092;18.918;2023-07-29T05:22:42;3.70;;;2.38;;
82248;SDS011;71851;49.092;18.918;2023-07-29T05:25:43;5.30;;;2.72;;
82248;SDS011;71851;49.092;18.918;2023-07-29T05:28:43;4.65;;;2.42;;
82248;SDS011;71851;49.092;18.918;2023-07-29T05:31:44;3.33;;;2.50;;
82248;SDS011;71851;49.092;18.918;2023-07-29T05:34:44;3.55;;;2.58;;
82248;SDS011;71851;49.092;18.918;2023-07-29T05:37:45;3.45;;;1.95;;
82248;SDS011;71851;49.092;18.918;2023-07-29T05:40:47;2.90;;;2.58;;
82248;SDS011;71851;49.092;18.918;2023-07-29T05:43:48;3.60;;;2.67;;
82248;SDS011;71851;49.092;18.918;2023-07-29T05:46:49;3.72;;;2.55;;
82248;SDS011;71851;49.092;18.918;2023-07-29T05:49:49;3.35;;;2.70;;
82248;SDS011;71851;49.092;18.918;2023-07-29T05:52:50;4.28;;;3.00;;
82248;SDS011;71851;49.092;18.918;2023-07-29T05:55:50;4.40;;;2.85;;
82248;SDS011;71851;49.092;18.918;2023-07-29T05:58:51;2.75;;;2.55;;
82248;SDS011;71851;49.092;18.918;2023-07-29T06:01:51;4.10;;;2.83;;
82248;SDS011;71851;49.092;18.918;2023-07-29T06:04:52;4.47;;;2.55;;
82248;SDS011;71851;49.092;18.918;2023-07-29T06:07:52;2.97;;;2.20;;
82248;SDS011;71851;49.092;18.918;2023-07-29T06:10:53;4.20;;;3.78;;
82248;SDS011;71851;49.092;18.918;2023-07-29T06:13:53;5.75;;;3.08;;
82248;SDS011;71851;49.092;18.918;2023-07-29T06:16:53;3.13;;;2.40;;
82248;SDS011;71851;49.092;18.918;2023-07-29T06:19:54;3.45;;;3.10;;
82248;SDS011;71851;49.092;18.918;2023-07-29T06:22:54;5.72;;;2.90;;
82248;SDS011;71851;49.092;18.918;2023-07-29T06:25:55;3.80;;;2.88;;
82248;SDS011;71851;49.092;18.918;2023-07-29T06:28:55;3.40;;;2.60;;
82248;SDS011;71851;49.092;18.918;2023-07-29T06:31:55;5.57;;;2.80;;
82248;SDS011;71851;49.092;18.918;2023-07-29T06:34:56;4.07;;;2.88;;
82248;SDS011;71851;49.092;18.918;2023-07-29T06:37:56;10.60;;;2.70;;
82248;SDS011;71851;49.092;18.918;2023-07-29T06:40:57;3.75;;;2.90;;
82248;SDS011;71851;49.092;18.918;2023-07-29T06:43:57;3.45;;;2.45;;
82248;SDS011;71851;49.092;18.918;2023-07-29T06:46:58;6.10;;;2.45;;
82248;SDS011;71851;49.092;18.918;2023-07-29T06:49:58;3.50;;;2.78;;
82248;SDS011;71851;49.092;18.918;2023-07-29T06:52:58;4.50;;;2.78;;
82248;SDS011;71851;49.092;18.918;2023-07-29T06:55:59;4.25;;;2.85;;
82248;SDS011;71851;49.092;18.918;2023-07-29T06:58:59;3.13;;;2.78;;
82248;SDS011;71851;49.092;18.918;2023-07-29T07:02:00;4.40;;;3.05;;
82248;SDS011;71851;49.092;18.918;2023-07-29T07:08:02;3.72;;;3.38;;
82248;SDS011;71851;49.092;18.918;2023-07-29T07:11:02;5.10;;;3.17;;
82248;SDS011;71851;49.092;18.918;2023-07-29T07:14:03;5.10;;;2.85;;
82248;SDS011;71851;49.092;18.918;2023-07-29T07:17:03;5.88;;;2.53;;
82248;SDS011;71851;49.092;18.918;2023-07-29T07:20:04;3.47;;;2.80;;
82248;SDS011;71851;49.092;18.918;2023-07-29T07:23:05;6.25;;;2.85;;
82248;SDS011;71851;49.092;18.918;2023-07-29T07:26:08;6.00;;;3.20;;
82248;SDS011;71851;49.092;18.918;2023-07-29T07:29:09;3.30;;;2.75;;
82248;SDS011;71851;49.092;18.918;2023-07-29T07:32:09;3.28;;;2.90;;
82248;SDS011;71851;49.092;18.918;2023-07-29T07:35:09;5.30;;;2.90;;
82248;SDS011;71851;49.092;18.918;2023-07-29T07:38:10;5.13;;;3.10;;
82248;SDS011;71851;49.092;18.918;2023-07-29T07:41:10;5.18;;;2.58;;
82248;SDS011;71851;49.092;18.918;2023-07-29T07:44:11;3.58;;;3.15;;
82248;SDS011;71851;49.092;18.918;2023-07-29T07:47:15;4.57;;;3.00;;
82248;SDS011;71851;49.092;18.918;2023-07-29T07:50:15;3.42;;;3.05;;
82248;SDS011;71851;49.092;18.918;2023-07-29T07:53:16;4.30;;;2.72;;
82248;SDS011;71851;49.092;18.918;2023-07-29T07:56:17;3.00;;;2.70;;
82248;SDS011;71851;49.092;18.918;2023-07-29T07:59:17;3.95;;;2.53;;
82248;SDS011;71851;49.092;18.918;2023-07-29T08:02:18;4.55;;;2.47;;
82248;SDS011;71851;49.092;18.918;2023-07-29T08:05:18;5.30;;;3.13;;
82248;SDS011;71851;49.092;18.918;2023-07-29T08:08:19;3.17;;;2.60;;
82248;SDS011;71851;49.092;18.918;2023-07-29T08:11:19;2.85;;;2.33;;
82248;SDS011;71851;49.092;18.918;2023-07-29T08:14:20;4.03;;;2.58;;
82248;SDS011;71851;49.092;18.918;2023-07-29T08:17:20;3.58;;;2.90;;
82248;SDS011;71851;49.092;18.918;2023-07-29T08:20:21;3.25;;;2.63;;
82248;SDS011;71851;49.092;18.918;2023-07-29T08:23:21;3.13;;;2.83;;
82248;SDS011;71851;49.092;18.918;2023-07-29T08:26:21;4.88;;;3.03;;
82248;SDS011;71851;49.092;18.918;2023-07-29T08:29:22;3.33;;;2.88;;
82248;SDS011;71851;49.092;18.918;2023-07-29T08:32:22;3.90;;;3.20;;
82248;SDS011;71851;49.092;18.918;2023-07-29T08:35:23;3.95;;;3.38;;
82248;SDS011;71851;49.092;18.918;2023-07-29T08:38:23;4.30;;;3.35;;
82248;SDS011;71851;49.092;18.918;2023-07-29T08:44:43;4.97;;;3.42;;
82248;SDS011;71851;49.092;18.918;2023-07-29T08:47:46;4.93;;;3.55;;
82248;SDS011;71851;49.092;18.918;2023-07-29T08:50:50;3.88;;;3.05;;
82248;SDS011;71851;49.092;18.918;2023-07-29T08:53:52;3.80;;;3.30;;
82248;SDS011;71851;49.092;18.918;2023-07-29T08:56:53;3.90;;;3.00;;
82248;SDS011;71851;49.092;18.918;2023-07-29T08:59:54;5.85;;;2.63;;
82248;SDS011;71851;49.092;18.918;2023-07-29T09:02:56;4.18;;;3.05;;
82248;SDS011;71851;49.092;18.918;2023-07-29T09:06:02;6.47;;;3.50;;
82248;SDS011;71851;49.092;18.918;2023-07-29T09:09:03;4.25;;;3.50;;
82248;SDS011;71851;49.092;18.918;2023-07-29T09:12:03;4.32;;;3.13;;
82248;SDS011;71851;49.092;18.918;2023-07-29T09:15:04;3.47;;;2.90;;
82248;SDS011;71851;49.092;18.918;2023-07-29T09:18:09;3.75;;;3.28;;
82248;SDS011;71851;49.092;18.918;2023-07-29T09:21:11;4.90;;;3.17;;
82248;SDS011;71851;49.092;18.918;2023-07-29T09:24:12;3.83;;;3.25;;
82248;SDS011;71851;49.092;18.918;2023-07-29T09:27:23;3.53;;;2.80;;
82248;SDS011;71851;49.092;18.918;2023-07-29T09:30:24;5.60;;;2.80;;
82248;SDS011;71851;49.092;18.918;2023-07-29T09:33:25;5.68;;;3.20;;
82248;SDS011;71851;49.092;18.918;2023-07-29T09:36:26;3.63;;;2.92;;
82248;SDS011;71851;49.092;18.918;2023-07-29T09:39:28;3.50;;;3.20;;
82248;SDS011;71851;49.092;18.918;2023-07-29T09:42:28;4.05;;;3.30;;
82248;SDS011;71851;49.092;18.918;2023-07-29T09:45:29;4.43;;;3.10;;
82248;SDS011;71851;49.092;18.918;2023-07-29T09:48:35;3.92;;;3.35;;
82248;SDS011;71851;49.092;18.918;2023-07-29T09:51:36;4.68;;;3.50;;
82248;SDS011;71851;49.092;18.918;2023-07-29T09:54:39;5.82;;;3.90;;
82248;SDS011;71851;49.092;18.918;2023-07-29T09:57:40;5.85;;;3.63;;
82248;SDS011;71851;49.092;18.918;2023-07-29T10:00:41;5.78;;;3.85;;
82248;SDS011;71851;49.092;18.918;2023-07-29T10:03:42;4.65;;;3.70;;
82248;SDS011;71851;49.092;18.918;2023-07-29T10:06:42;4.35;;;3.60;;
82248;SDS011;71851;49.092;18.918;2023-07-29T10:09:43;4.28;;;3.85;;
82248;SDS011;71851;49.092;18.918;2023-07-29T10:12:45;4.38;;;3.35;;
82248;SDS011;71851;49.092;18.918;2023-07-29T10:15:46;5.38;;;4.03;;
82248;SDS011;71851;49.092;18.918;2023-07-29T10:18:48;5.25;;;4.07;;
82248;SDS011;71851;49.092;18.918;2023-07-29T10:21:50;4.80;;;3.92;;
82248;SDS011;71851;49.092;18.918;2023-07-29T10:24:50;5.88;;;3.88;;
82248;SDS011;71851;49.092;18.918;2023-07-29T10:28:00;4.68;;;3.72;;
82248;SDS011;71851;49.092;18.918;2023-07-29T10:31:05;4.50;;;3.47;;
82248;SDS011;71851;49.092;18.918;2023-07-29T10:34:06;4.32;;;3.03;;
82248;SDS011;71851;49.092;18.918;2023-07-29T10:37:08;4.57;;;3.45;;
82248;SDS011;71851;49.092;18.918;2023-07-29T10:40:09;4.82;;;3.50;;
82248;SDS011;71851;49.092;18.918;2023-07-29T10:43:11;4.53;;;3.30;;
82248;SDS011;71851;49.092;18.918;2023-07-29T10:46:16;3.38;;;3.08;;
82248;SDS011;71851;49.092;18.918;2023-07-29T10:49:18;3.30;;;3.00;;
82248;SDS011;71851;49.092;18.918;2023-07-29T10:55:36;3.53;;;3.20;;
82248;SDS011;71851;49.092;18.918;2023-07-29T10:58:37;3.65;;;2.83;;
82248;SDS011;71851;49.092;18.918;2023-07-29T11:01:40;3.45;;;3.15;;
82248;SDS011;71851;49.092;18.918;2023-07-29T11:04:48;4.18;;;3.03;;
82248;SDS011;71851;49.092;18.918;2023-07-29T11:07:50;4.07;;;2.88;;
82248;SDS011;71851;49.092;18.918;2023-07-29T11:11:01;3.47;;;3.17;;
82248;SDS011;71851;49.092;18.918;2023-07-29T11:14:02;3.40;;;3.00;;
82248;SDS011;71851;49.092;18.918;2023-07-29T11:17:04;4.93;;;3.10;;
82248;SDS011;71851;49.092;18.918;2023-07-29T11:20:05;3.40;;;2.88;;
82248;SDS011;71851;49.092;18.918;2023-07-29T11:23:09;3.92;;;3.13;;
82248;SDS011;71851;49.092;18.918;2023-07-29T11:26:09;4.68;;;3.67;;
82248;SDS011;71851;49.092;18.918;2023-07-29T11:29:10;3.85;;;3.45;;
82248;SDS011;71851;49.092;18.918;2023-07-29T11:32:10;3.80;;;3.50;;
82248;SDS011;71851;49.092;18.918;2023-07-29T11:35:17;4.40;;;3.88;;
82248;SDS011;71851;49.092;18.918;2023-07-29T11:38:19;3.97;;;3.30;;
82248;SDS011;71851;49.092;18.918;2023-07-29T11:41:20;4.18;;;3.33;;
82248;SDS011;71851;49.092;18.918;2023-07-29T11:47:22;4.03;;;3.03;;
82248;SDS011;71851;49.092;18.918;2023-07-29T11:50:22;4.32;;;3.55;;
82248;SDS011;71851;49.092;18.918;2023-07-29T11:53:25;3.50;;;3.03;;
82248;SDS011;71851;49.092;18.918;2023-07-29T11:56:27;5.20;;;4.18;;
82248;SDS011;71851;49.092;18.918;2023-07-29T11:59:30;5.55;;;3.25;;
82248;SDS011;71851;49.092;18.918;2023-07-29T12:02:33;7.45;;;3.90;;
82248;SDS011;71851;49.092;18.918;2023-07-29T12:05:37;5.55;;;3.58;;
82248;SDS011;71851;49.092;18.918;2023-07-29T12:08:37;6.57;;;3.67;;
82248;SDS011;71851;49.092;18.918;2023-07-29T12:11:38;3.78;;;2.92;;
82248;SDS011;71851;49.092;18.918;2023-07-29T12:17:43;3.67;;;3.28;;
82248;SDS011;71851;49.092;18.918;2023-07-29T12:20:43;5.70;;;2.90;;
82248;SDS011;71851;49.092;18.918;2023-07-29T12:23:44;4.47;;;3.38;;
82248;SDS011;71851;49.092;18.918;2023-07-29T12:26:46;3.83;;;3.10;;
82248;SDS011;71851;49.092;18.918;2023-07-29T12:29:47;4.40;;;2.92;;
82248;SDS011;71851;49.092;18.918;2023-07-29T12:35:50;4.28;;;3.20;;
82248;SDS011;71851;49.092;18.918;2023-07-29T12:38:50;4.10;;;2.85;;
82248;SDS011;71851;49.092;18.918;2023-07-29T12:41:52;3.05;;;2.40;;
82248;SDS011;71851;49.092;18.918;2023-07-29T12:44:54;7.75;;;3.53;;
82248;SDS011;71851;49.092;18.918;2023-07-29T12:47:55;7.18;;;3.72;;
82248;SDS011;71851;49.092;18.918;2023-07-29T12:53:56;4.50;;;3.70;;
82248;SDS011;71851;49.092;18.918;2023-07-29T12:56:56;7.00;;;3.60;;
82248;SDS011;71851;49.092;18.918;2023-07-29T12:59:57;5.68;;;3.10;;
82248;SDS011;71851;49.092;18.918;2023-07-29T13:02:57;5.93;;;3.13;;
82248;SDS011;71851;49.092;18.918;2023-07-29T13:05:58;5.05;;;3.35;;
82248;SDS011;71851;49.092;18.918;2023-07-29T13:08:58;4.63;;;2.72;;
82248;SDS011;71851;49.092;18.918;2023-07-29T13:11:58;7.03;;;2.83;;
82248;SDS011;71851;49.092;18.918;2023-07-29T13:14:59;3.72;;;2.35;;
82248;SDS011;71851;49.092;18.918;2023-07-29T13:17:59;2.88;;;2.47;;
82248;SDS011;71851;49.092;18.918;2023-07-29T13:21:00;2.83;;;2.38;;
82248;SDS011;71851;49.092;18.918;2023-07-29T13:24:00;4.47;;;2.90;;
82248;SDS011;71851;49.092;18.918;2023-07-29T13:27:01;6.22;;;2.75;;
82248;SDS011;71851;49.092;18.918;2023-07-29T13:30:01;3.30;;;2.45;;
82248;SDS011;71851;49.092;18.918;2023-07-29T13:33:02;5.40;;;2.63;;
82248;SDS011;71851;49.092;18.918;2023-07-29T13:36:02;2.75;;;2.55;;
82248;SDS011;71851;49.092;18.918;2023-07-29T13:39:03;5.63;;;2.65;;
82248;SDS011;71851;49.092;18.918;2023-07-29T13:42:03;4.03;;;2.42;;
82248;SDS011;71851;49.092;18.918;2023-07-29T13:45:04;3.92;;;2.70;;
82248;SDS011;71851;49.092;18.918;2023-07-29T13:48:05;4.15;;;2.40;;
82248;SDS011;71851;49.092;18.918;2023-07-29T13:51:05;4.85;;;2.75;;
82248;SDS011;71851;49.092;18.918;2023-07-29T13:54:06;4.75;;;2.70;;
82248;SDS011;71851;49.092;18.918;2023-07-29T13:57:06;5.53;;;2.85;;
82248;SDS011;71851;49.092;18.918;2023-07-29T14:00:07;4.53;;;2.83;;
82248;SDS011;71851;49.092;18.918;2023-07-29T14:03:14;3.63;;;2.40;;
82248;SDS011;71851;49.092;18.918;2023-07-29T14:06:14;4.70;;;2.67;;
82248;SDS011;71851;49.092;18.918;2023-07-29T14:09:15;2.35;;;2.03;;
82248;SDS011;71851;49.092;18.918;2023-07-29T14:12:15;3.35;;;2.58;;
82248;SDS011;71851;49.092;18.918;2023-07-29T14:15:16;3.50;;;2.72;;
82248;SDS011;71851;49.092;18.918;2023-07-29T14:18:16;2.70;;;2.50;;
82248;SDS011;71851;49.092;18.918;2023-07-29T14:21:16;3.15;;;2.53;;
82248;SDS011;71851;49.092;18.918;2023-07-29T14:24:17;3.25;;;2.47;;
82248;SDS011;71851;49.092;18.918;2023-07-29T14:27:17;2.10;;;1.90;;
82248;SDS011;71851;49.092;18.918;2023-07-29T14:30:18;4.07;;;2.80;;
82248;SDS011;71851;49.092;18.918;2023-07-29T14:33:19;4.03;;;2.47;;
82248;SDS011;71851;49.092;18.918;2023-07-29T14:36:19;2.58;;;2.10;;
82248;SDS011;71851;49.092;18.918;2023-07-29T14:39:20;3.60;;;2.42;;
82248;SDS011;71851;49.092;18.918;2023-07-29T14:42:20;2.78;;;2.22;;
82248;SDS011;71851;49.092;18.918;2023-07-29T14:45:21;2.67;;;2.10;;
82248;SDS011;71851;49.092;18.918;2023-07-29T14:48:21;3.40;;;2.33;;
82248;SDS011;71851;49.092;18.918;2023-07-29T14:51:22;2.22;;;2.03;;
82248;SDS011;71851;49.092;18.918;2023-07-29T14:54:23;2.40;;;2.10;;
82248;SDS011;71851;49.092;18.918;2023-07-29T14:57:23;3.97;;;2.30;;
82248;SDS011;71851;49.092;18.918;2023-07-29T15:00:24;3.78;;;2.33;;
82248;SDS011;71851;49.092;18.918;2023-07-29T15:03:24;3.65;;;2.50;;
82248;SDS011;71851;49.092;18.918;2023-07-29T15:06:25;3.15;;;2.08;;
82248;SDS011;71851;49.092;18.918;2023-07-29T15:09:25;3.40;;;2.10;;
82248;SDS011;71851;49.092;18.918;2023-07-29T15:12:26;2.60;;;2.10;;
82248;SDS011;71851;49.092;18.918;2023-07-29T15:15:26;2.88;;;2.25;;
82248;SDS011;71851;49.092;18.918;2023-07-29T15:18:26;3.20;;;2.10;;
82248;SDS011;71851;49.092;18.918;2023-07-29T15:21:30;2.25;;;1.77;;
82248;SDS011;71851;49.092;18.918;2023-07-29T15:24:30;3.25;;;2.40;;
82248;SDS011;71851;49.092;18.918;2023-07-29T15:27:31;2.72;;;2.17;;
82248;SDS011;71851;49.092;18.918;2023-07-29T15:30:31;3.22;;;2.28;;
82248;SDS011;71851;49.092;18.918;2023-07-29T15:33:35;2.33;;;1.90;;
82248;SDS011;71851;49.092;18.918;2023-07-29T15:36:36;3.67;;;1.98;;
82248;SDS011;71851;49.092;18.918;2023-07-29T15:39:36;3.67;;;2.28;;
82248;SDS011;71851;49.092;18.918;2023-07-29T15:42:37;2.97;;;2.35;;
82248;SDS011;71851;49.092;18.918;2023-07-29T15:45:37;3.55;;;2.50;;
82248;SDS011;71851;49.092;18.918;2023-07-29T15:48:38;2.72;;;2.20;;
82248;SDS011;71851;49.092;18.918;2023-07-29T15:51:39;3.35;;;2.50;;
82248;SDS011;71851;49.092;18.918;2023-07-29T15:54:39;3.28;;;2.22;;
82248;SDS011;71851;49.092;18.918;2023-07-29T15:57:40;3.70;;;2.03;;
82248;SDS011;71851;49.092;18.918;2023-07-29T16:00:41;3.42;;;2.47;;
82248;SDS011;71851;49.092;18.918;2023-07-29T16:03:41;3.50;;;2.25;;
82248;SDS011;71851;49.092;18.918;2023-07-29T16:06:42;3.80;;;2.67;;
82248;SDS011;71851;49.092;18.918;2023-07-29T16:09:42;3.75;;;2.10;;
82248;SDS011;71851;49.092;18.918;2023-07-29T16:12:42;5.10;;;2.50;;
82248;SDS011;71851;49.092;18.918;2023-07-29T16:15:43;5.38;;;2.22;;
82248;SDS011;71851;49.092;18.918;2023-07-29T16:18:44;5.30;;;2.65;;
82248;SDS011;71851;49.092;18.918;2023-07-29T16:21:44;3.53;;;2.30;;
82248;SDS011;71851;49.092;18.918;2023-07-29T16:24:44;4.25;;;2.88;;
82248;SDS011;71851;49.092;18.918;2023-07-29T16:27:45;6.43;;;2.47;;
82248;SDS011;71851;49.092;18.918;2023-07-29T16:30:46;3.50;;;2.03;;
82248;SDS011;71851;49.092;18.918;2023-07-29T16:33:46;4.18;;;2.35;;
82248;SDS011;71851;49.092;18.918;2023-07-29T16:36:47;3.83;;;2.20;;
82248;SDS011;71851;49.092;18.918;2023-07-29T16:39:47;2.97;;;2.65;;
82248;SDS011;71851;49.092;18.918;2023-07-29T16:42:47;3.10;;;2.08;;
82248;SDS011;71851;49.092;18.918;2023-07-29T16:45:48;4.57;;;2.85;;
82248;SDS011;71851;49.092;18.918;2023-07-29T16:48:48;3.45;;;2.05;;
82248;SDS011;71851;49.092;18.918;2023-07-29T16:51:49;3.80;;;2.70;;
82248;SDS011;71851;49.092;18.918;2023-07-29T16:54:50;2.90;;;2.50;;
82248;SDS011;71851;49.092;18.918;2023-07-29T16:57:50;3.60;;;2.00;;
82248;SDS011;71851;49.092;18.918;2023-07-29T17:00:51;6.63;;;2.47;;
82248;SDS011;71851;49.092;18.918;2023-07-29T17:03:52;6.53;;;2.25;;
82248;SDS011;71851;49.092;18.918;2023-07-29T17:06:52;2.80;;;2.25;;
82248;SDS011;71851;49.092;18.918;2023-07-29T17:12:54;8.67;;;4.57;;
82248;SDS011;71851;49.092;18.918;2023-07-29T17:15:55;3.45;;;2.30;;
82248;SDS011;71851;49.092;18.918;2023-07-29T17:18:55;5.80;;;4.93;;
82248;SDS011;71851;49.092;18.918;2023-07-29T17:21:56;3.25;;;2.75;;
82248;SDS011;71851;49.092;18.918;2023-07-29T17:24:56;3.50;;;2.50;;
82248;SDS011;71851;49.092;18.918;2023-07-29T17:27:57;4.70;;;2.53;;
82248;SDS011;71851;49.092;18.918;2023-07-29T17:30:58;4.35;;;2.78;;
82248;SDS011;71851;49.092;18.918;2023-07-29T17:33:58;2.08;;;1.10;;
82248;SDS011;71851;49.092;18.918;2023-07-29T17:40:00;1.50;;;0.80;;
82248;SDS011;71851;49.092;18.918;2023-07-29T17:43:00;0.88;;;0.52;;
82248;SDS011;71851;49.092;18.918;2023-07-29T17:46:01;2.95;;;0.73;;
82248;SDS011;71851;49.092;18.918;2023-07-29T17:49:01;2.03;;;0.98;;
82248;SDS011;71851;49.092;18.918;2023-07-29T17:52:02;4.65;;;0.70;;
82248;SDS011;71851;49.092;18.918;2023-07-29T17:55:03;3.00;;;0.90;;
82248;SDS011;71851;49.092;18.918;2023-07-29T17:58:07;1.48;;;0.80;;
82248;SDS011;71851;49.092;18.918;2023-07-29T18:01:07;4.45;;;0.98;;
82248;SDS011;71851;49.092;18.918;2023-07-29T18:04:08;1.10;;;0.73;;
82248;SDS011;71851;49.092;18.918;2023-07-29T18:07:08;1.63;;;1.15;;
82248;SDS011;71851;49.092;18.918;2023-07-29T18:10:09;5.60;;;1.08;;
82248;SDS011;71851;49.092;18.918;2023-07-29T18:13:09;3.55;;;0.88;;
82248;SDS011;71851;49.092;18.918;2023-07-29T18:16:10;2.05;;;0.90;;
82248;SDS011;71851;49.092;18.918;2023-07-29T18:19:12;1.35;;;0.70;;
82248;SDS011;71851;49.092;18.918;2023-07-29T18:22:13;2.22;;;1.05;;
82248;SDS011;71851;49.092;18.918;2023-07-29T18:25:14;2.58;;;1.30;;
82248;SDS011;71851;49.092;18.918;2023-07-29T18:28:14;1.95;;;0.90;;